sensor_id;sensor_type;location;lat;lon;timestamp;pressure;altitude;pressure_sealevel;temperature;humidity
47374;BME280;33123;50.118;10.272;2023-02-01T00:01:30;97938.94;;;6.41;75.54
47374;BME280;33123;50.118;10.272;2023-02-01T00:03:56;97934.03;;;6.51;75.28
47374;BME280;33123;50.118;10.272;2023-02-01T00:06:23;97937.28;;;6.46;75.65
47374;BME280;33123;50.118;10.272;2023-02-01T00:08:52;97936.72;;;6.38;75.01
47374;BME280;33123;50.118;10.272;2023-02-01T00:11:20;97945.72;;;6.48;75.15
47374;BME280;33123;50.118;10.272;2023-02-01T00:13:48;97947.28;;;6.56;74.53
47374;BME280;33123;50.118;10.272;2023-02-01T00:16:16;97948.22;;;6.37;75.38
47374;BME280;33123;50.118;10.272;2023-02-01T00:18:44;97944.69;;;6.49;75.05
47374;BME280;33123;50.118;10.272;2023-02-01T00:21:11;97942.41;;;6.59;75.21
47374;BME280;33123;50.118;10.272;2023-02-01T00:23:38;97936.03;;;6.49;74.75
47374;BME280;33123;50.118;10.272;2023-02-01T00:26:06;97942.91;;;6.50;75.15
47374;BME280;33123;50.118;10.272;2023-02-01T00:28:34;97949.28;;;6.54;74.54
47374;BME280;33123;50.118;10.272;2023-02-01T00:31:02;97949.09;;;6.55;74.84
47374;BME280;33123;50.118;10.272;2023-02-01T00:33:31;97944.56;;;6.44;74.30
47374;BME280;33123;50.118;10.272;2023-02-01T00:35:58;97945.94;;;6.47;74.51
47374;BME280;33123;50.118;10.272;2023-02-01T00:38:25;97951.34;;;6.52;73.87
47374;BME280;33123;50.118;10.272;2023-02-01T00:40:51;97942.47;;;6.53;73.33
47374;BME280;33123;50.118;10.272;2023-02-01T00:43:18;97943.91;;;6.49;72.78
47374;BME280;33123;50.118;10.272;2023-02-01T00:45:46;97951.16;;;6.47;72.54
47374;BME280;33123;50.118;10.272;2023-02-01T00:48:13;97944.16;;;6.41;73.30
47374;BME280;33123;50.118;10.272;2023-02-01T00:50:41;97947.66;;;6.34;73.70
47374;BME280;33123;50.118;10.272;2023-02-01T00:53:08;97935.75;;;6.32;73.76
47374;BME280;33123;50.118;10.272;2023-02-01T00:55:35;97944.69;;;6.24;74.17
47374;BME280;33123;50.118;10.272;2023-02-01T00:58:01;97946.72;;;6.22;74.29
47374;BME280;33123;50.118;10.272;2023-02-01T01:00:31;97940.88;;;6.20;74.43
47374;BME280;33123;50.118;10.272;2023-02-01T01:02:59;97939.50;;;6.18;74.52
47374;BME280;33123;50.118;10.272;2023-02-01T01:05:25;97941.31;;;6.17;74.39
47374;BME280;33123;50.118;10.272;2023-02-01T01:07:53;97939.56;;;6.11;75.02
47374;BME280;33123;50.118;10.272;2023-02-01T01:10:19;97925.09;;;6.02;75.11
47374;BME280;33123;50.118;10.272;2023-02-01T01:12:46;97940.34;;;6.12;74.73
47374;BME280;33123;50.118;10.272;2023-02-01T01:15:13;97940.00;;;6.01;74.83
47374;BME280;33123;50.118;10.272;2023-02-01T01:17:39;97948.44;;;6.03;74.66
47374;BME280;33123;50.118;10.272;2023-02-01T01:20:09;97943.41;;;6.02;75.11
47374;BME280;33123;50.118;10.272;2023-02-01T01:22:36;97944.41;;;6.07;74.80
47374;BME280;33123;50.118;10.272;2023-02-01T01:25:03;97947.41;;;6.11;74.91
47374;BME280;33123;50.118;10.272;2023-02-01T01:27:30;97941.94;;;6.13;74.61
47374;BME280;33123;50.118;10.272;2023-02-01T01:29:56;97947.22;;;6.06;73.93
47374;BME280;33123;50.118;10.272;2023-02-01T01:32:23;97942.75;;;6.13;74.52
47374;BME280;33123;50.118;10.272;2023-02-01T01:34:50;97947.75;;;6.15;74.43
47374;BME280;33123;50.118;10.272;2023-02-01T01:37:18;97940.75;;;6.08;74.00
47374;BME280;33123;50.118;10.272;2023-02-01T01:39:44;97938.38;;;6.07;73.88
47374;BME280;33123;50.118;10.272;2023-02-01T01:42:11;97942.56;;;6.08;74.43
47374;BME280;33123;50.118;10.272;2023-02-01T01:44:57;97940.34;;;6.12;74.75
47374;BME280;33123;50.118;10.272;2023-02-01T01:47:25;97930.28;;;6.08;74.54
47374;BME280;33123;50.118;10.272;2023-02-01T01:49:53;97925.50;;;5.99;75.28
47374;BME280;33123;50.118;10.272;2023-02-01T01:52:22;97934.31;;;6.11;74.77
47374;BME280;33123;50.118;10.272;2023-02-01T01:54:51;97924.84;;;6.10;74.71
47374;BME280;33123;50.118;10.272;2023-02-01T01:57:23;97922.41;;;6.15;74.49
47374;BME280;33123;50.118;10.272;2023-02-01T01:59:56;97918.63;;;6.11;74.93
47374;BME280;33123;50.118;10.272;2023-02-01T02:02:27;97911.75;;;6.10;75.17
47374;BME280;33123;50.118;10.272;2023-02-01T02:04:53;97907.81;;;6.01;76.09
47374;BME280;33123;50.118;10.272;2023-02-01T02:07:25;97913.97;;;6.13;75.63
47374;BME280;33123;50.118;10.272;2023-02-01T02:09:52;97915.28;;;5.97;76.46
47374;BME280;33123;50.118;10.272;2023-02-01T02:12:19;97920.03;;;6.07;76.21
47374;BME280;33123;50.118;10.272;2023-02-01T02:14:46;97909.81;;;6.05;76.18
47374;BME280;33123;50.118;10.272;2023-02-01T02:17:26;97914.38;;;6.10;75.87
47374;BME280;33123;50.118;10.272;2023-02-01T02:20:30;97909.75;;;6.12;75.79
47374;BME280;33123;50.118;10.272;2023-02-01T02:23:43;97904.72;;;6.11;75.81
47374;BME280;33123;50.118;10.272;2023-02-01T02:26:26;97902.56;;;6.01;76.36
47374;BME280;33123;50.118;10.272;2023-02-01T02:32:15;97827.09;;;5.73;76.10
47374;BME280;33123;50.118;10.272;2023-02-01T02:34:53;97874.22;;;5.98;76.11
47374;BME280;33123;50.118;10.272;2023-02-01T02:37:28;97888.81;;;6.12;76.18
47374;BME280;33123;50.118;10.272;2023-02-01T02:40:04;97864.41;;;6.18;75.63
47374;BME280;33123;50.118;10.272;2023-02-01T02:42:38;97863.63;;;6.18;75.34
47374;BME280;33123;50.118;10.272;2023-02-01T02:45:28;97858.31;;;6.24;75.30
47374;BME280;33123;50.118;10.272;2023-02-01T02:48:18;97847.94;;;6.36;75.13
47374;BME280;33123;50.118;10.272;2023-02-01T02:50:51;97859.66;;;6.33;75.29
47374;BME280;33123;50.118;10.272;2023-02-01T02:53:47;97866.06;;;6.38;75.21
47374;BME280;33123;50.118;10.272;2023-02-01T02:56:33;97881.03;;;6.30;75.00
47374;BME280;33123;50.118;10.272;2023-02-01T02:59:21;97879.38;;;6.36;75.27
47374;BME280;33123;50.118;10.272;2023-02-01T03:02:07;97871.81;;;6.21;75.48
47374;BME280;33123;50.118;10.272;2023-02-01T03:04:52;97877.94;;;6.40;74.85
47374;BME280;33123;50.118;10.272;2023-02-01T03:07:55;97863.56;;;6.24;75.67
47374;BME280;33123;50.118;10.272;2023-02-01T03:10:29;97863.78;;;6.23;76.34
47374;BME280;33123;50.118;10.272;2023-02-01T03:13:02;97866.56;;;6.28;75.53
47374;BME280;33123;50.118;10.272;2023-02-01T03:15:36;97869.19;;;5.96;76.22
47374;BME280;33123;50.118;10.272;2023-02-01T03:18:07;97865.53;;;6.29;75.46
47374;BME280;33123;50.118;10.272;2023-02-01T03:20:38;97857.31;;;6.25;75.89
47374;BME280;33123;50.118;10.272;2023-02-01T03:23:09;97842.78;;;6.29;75.70
47374;BME280;33123;50.118;10.272;2023-02-01T03:25:38;97840.75;;;6.31;75.45
47374;BME280;33123;50.118;10.272;2023-02-01T03:28:07;97851.38;;;6.12;75.72
47374;BME280;33123;50.118;10.272;2023-02-01T03:30:37;97843.16;;;6.33;75.66
47374;BME280;33123;50.118;10.272;2023-02-01T03:33:08;97841.34;;;6.33;75.22
47374;BME280;33123;50.118;10.272;2023-02-01T03:35:41;97834.06;;;6.35;75.59
47374;BME280;33123;50.118;10.272;2023-02-01T03:38:18;97830.97;;;6.20;76.50
47374;BME280;33123;50.118;10.272;2023-02-01T03:40:50;97828.56;;;6.19;76.12
47374;BME280;33123;50.118;10.272;2023-02-01T03:43:19;97847.16;;;6.35;75.72
47374;BME280;33123;50.118;10.272;2023-02-01T03:45:50;97844.13;;;6.39;75.29
47374;BME280;33123;50.118;10.272;2023-02-01T03:48:22;97841.06;;;6.42;75.48
47374;BME280;33123;50.118;10.272;2023-02-01T03:50:52;97838.66;;;6.40;75.50
47374;BME280;33123;50.118;10.272;2023-02-01T03:53:25;97847.03;;;6.49;75.29
47374;BME280;33123;50.118;10.272;2023-02-01T03:55:53;97845.88;;;6.45;75.00
47374;BME280;33123;50.118;10.272;2023-02-01T03:58:22;97845.09;;;6.38;75.06
47374;BME280;33123;50.118;10.272;2023-02-01T04:00:51;97840.00;;;6.24;75.95
47374;BME280;33123;50.118;10.272;2023-02-01T04:03:19;97846.75;;;6.39;75.59
47374;BME280;33123;50.118;10.272;2023-02-01T04:05:47;97847.47;;;6.46;75.44
47374;BME280;33123;50.118;10.272;2023-02-01T04:08:13;97850.09;;;6.46;75.33
47374;BME280;33123;50.118;10.272;2023-02-01T04:10:41;97851.09;;;6.45;74.71
47374;BME280;33123;50.118;10.272;2023-02-01T04:13:09;97847.47;;;6.46;74.73
47374;BME280;33123;50.118;10.272;2023-02-01T04:15:36;97841.28;;;6.40;74.78
47374;BME280;33123;50.118;10.272;2023-02-01T04:18:02;97840.66;;;6.38;75.20
47374;BME280;33123;50.118;10.272;2023-02-01T04:20:29;97840.91;;;6.37;75.08
47374;BME280;33123;50.118;10.272;2023-02-01T04:22:56;97838.97;;;6.50;74.85
47374;BME280;33123;50.118;10.272;2023-02-01T04:25:22;97836.13;;;6.52;74.81
47374;BME280;33123;50.118;10.272;2023-02-01T04:27:50;97824.38;;;6.36;75.46
47374;BME280;33123;50.118;10.272;2023-02-01T04:30:17;97825.13;;;6.43;74.94
47374;BME280;33123;50.118;10.272;2023-02-01T04:32:44;97826.78;;;6.38;75.60
47374;BME280;33123;50.118;10.272;2023-02-01T04:35:10;97816.84;;;6.46;75.31
47374;BME280;33123;50.118;10.272;2023-02-01T04:37:37;97825.72;;;6.45;75.36
47374;BME280;33123;50.118;10.272;2023-02-01T04:40:04;97831.03;;;6.39;75.17
47374;BME280;33123;50.118;10.272;2023-02-01T04:42:31;97830.16;;;6.45;75.04
47374;BME280;33123;50.118;10.272;2023-02-01T04:44:59;97830.72;;;6.28;75.08
47374;BME280;33123;50.118;10.272;2023-02-01T04:47:26;97839.84;;;6.44;75.23
47374;BME280;33123;50.118;10.272;2023-02-01T04:49:52;97831.31;;;6.49;74.58
47374;BME280;33123;50.118;10.272;2023-02-01T04:52:19;97834.88;;;6.54;74.27
47374;BME280;33123;50.118;10.272;2023-02-01T04:54:45;97833.66;;;6.57;74.15
47374;BME280;33123;50.118;10.272;2023-02-01T04:57:12;97831.47;;;6.54;73.94
47374;BME280;33123;50.118;10.272;2023-02-01T04:59:40;97834.25;;;6.59;73.60
47374;BME280;33123;50.118;10.272;2023-02-01T05:02:08;97833.81;;;6.62;73.75
47374;BME280;33123;50.118;10.272;2023-02-01T05:04:34;97829.59;;;6.61;73.45
47374;BME280;33123;50.118;10.272;2023-02-01T05:07:01;97828.59;;;6.62;73.23
47374;BME280;33123;50.118;10.272;2023-02-01T05:09:27;97828.59;;;6.62;72.99
47374;BME280;33123;50.118;10.272;2023-02-01T05:11:54;97815.50;;;6.62;72.63
47374;BME280;33123;50.118;10.272;2023-02-01T05:14:38;97819.84;;;6.50;73.01
47374;BME280;33123;50.118;10.272;2023-02-01T05:17:04;97815.19;;;6.52;72.59
47374;BME280;33123;50.118;10.272;2023-02-01T05:19:32;97804.72;;;6.52;72.54
47374;BME280;33123;50.118;10.272;2023-02-01T05:21:59;97805.34;;;6.47;72.21
47374;BME280;33123;50.118;10.272;2023-02-01T05:24:25;97802.50;;;6.49;72.59
47374;BME280;33123;50.118;10.272;2023-02-01T05:26:52;97799.47;;;6.52;72.15
47374;BME280;33123;50.118;10.272;2023-02-01T05:29:19;97801.94;;;6.47;72.26
47374;BME280;33123;50.118;10.272;2023-02-01T05:31:46;97791.88;;;6.44;71.75
47374;BME280;33123;50.118;10.272;2023-02-01T05:34:14;97803.69;;;6.34;71.97
47374;BME280;33123;50.118;10.272;2023-02-01T05:36:42;97811.84;;;6.45;71.87
47374;BME280;33123;50.118;10.272;2023-02-01T05:39:08;97806.88;;;6.37;72.00
47374;BME280;33123;50.118;10.272;2023-02-01T05:41:35;97812.47;;;6.40;71.50
47374;BME280;33123;50.118;10.272;2023-02-01T05:44:04;97804.84;;;6.39;71.76
47374;BME280;33123;50.118;10.272;2023-02-01T05:46:33;97808.31;;;6.32;70.96
47374;BME280;33123;50.118;10.272;2023-02-01T05:48:59;97806.88;;;6.37;71.47
47374;BME280;33123;50.118;10.272;2023-02-01T05:51:26;97804.09;;;6.31;71.17
47374;BME280;33123;50.118;10.272;2023-02-01T05:53:54;97806.13;;;6.29;71.88
47374;BME280;33123;50.118;10.272;2023-02-01T05:56:20;97798.44;;;6.34;71.87
47374;BME280;33123;50.118;10.272;2023-02-01T05:58:47;97799.66;;;6.32;71.68
47374;BME280;33123;50.118;10.272;2023-02-01T06:01:14;97796.69;;;6.28;72.01
47374;BME280;33123;50.118;10.272;2023-02-01T06:03:40;97798.38;;;6.16;72.35
47374;BME280;33123;50.118;10.272;2023-02-01T06:06:07;97787.78;;;6.11;72.13
47374;BME280;33123;50.118;10.272;2023-02-01T06:08:33;97766.56;;;6.19;71.42
47374;BME280;33123;50.118;10.272;2023-02-01T06:11:03;97757.66;;;6.02;71.78
47374;BME280;33123;50.118;10.272;2023-02-01T06:13:30;97764.25;;;6.11;70.95
47374;BME280;33123;50.118;10.272;2023-02-01T06:15:57;97766.81;;;5.86;71.13
47374;BME280;33123;50.118;10.272;2023-02-01T06:18:23;97769.19;;;6.19;70.80
47374;BME280;33123;50.118;10.272;2023-02-01T06:20:53;97780.34;;;6.08;70.87
47374;BME280;33123;50.118;10.272;2023-02-01T06:23:20;97779.25;;;6.16;70.78
47374;BME280;33123;50.118;10.272;2023-02-01T06:25:50;97782.25;;;6.19;70.50
47374;BME280;33123;50.118;10.272;2023-02-01T06:28:18;97775.69;;;5.85;71.57
47374;BME280;33123;50.118;10.272;2023-02-01T06:30:45;97783.53;;;6.10;71.30
47374;BME280;33123;50.118;10.272;2023-02-01T06:33:12;97791.78;;;6.14;71.22
47374;BME280;33123;50.118;10.272;2023-02-01T06:35:40;97782.41;;;6.06;71.07
47374;BME280;33123;50.118;10.272;2023-02-01T06:38:07;97775.75;;;5.78;71.53
47374;BME280;33123;50.118;10.272;2023-02-01T06:40:34;97771.59;;;5.96;71.53
47374;BME280;33123;50.118;10.272;2023-02-01T06:43:01;97779.34;;;6.09;71.20
47374;BME280;33123;50.118;10.272;2023-02-01T06:45:29;97782.56;;;6.11;71.83
47374;BME280;33123;50.118;10.272;2023-02-01T06:47:56;97745.25;;;5.91;71.69
47374;BME280;33123;50.118;10.272;2023-02-01T06:50:24;97770.28;;;6.12;71.33
47374;BME280;33123;50.118;10.272;2023-02-01T06:52:50;97752.63;;;5.75;72.23
47374;BME280;33123;50.118;10.272;2023-02-01T06:55:17;97771.53;;;6.02;71.08
47374;BME280;33123;50.118;10.272;2023-02-01T06:57:44;97776.78;;;6.02;71.38
47374;BME280;33123;50.118;10.272;2023-02-01T07:00:11;97777.81;;;6.01;71.25
47374;BME280;33123;50.118;10.272;2023-02-01T07:02:40;97784.25;;;5.99;71.08
47374;BME280;33123;50.118;10.272;2023-02-01T07:05:07;97790.09;;;6.01;71.04
47374;BME280;33123;50.118;10.272;2023-02-01T07:07:33;97798.34;;;5.98;71.25
47374;BME280;33123;50.118;10.272;2023-02-01T07:10:00;97787.81;;;6.04;71.32
47374;BME280;33123;50.118;10.272;2023-02-01T07:12:27;97785.31;;;6.16;70.94
47374;BME280;33123;50.118;10.272;2023-02-01T07:14:53;97773.19;;;5.97;71.04
47374;BME280;33123;50.118;10.272;2023-02-01T07:17:20;97782.44;;;6.24;69.87
47374;BME280;33123;50.118;10.272;2023-02-01T07:19:48;97781.69;;;6.17;70.18
47374;BME280;33123;50.118;10.272;2023-02-01T07:22:16;97786.38;;;6.33;69.44
47374;BME280;33123;50.118;10.272;2023-02-01T07:24:42;97783.69;;;6.15;69.76
47374;BME280;33123;50.118;10.272;2023-02-01T07:27:09;97783.38;;;6.30;69.52
47374;BME280;33123;50.118;10.272;2023-02-01T07:29:36;97773.13;;;6.47;69.28
47374;BME280;33123;50.118;10.272;2023-02-01T07:32:02;97774.59;;;6.43;68.62
47374;BME280;33123;50.118;10.272;2023-02-01T07:34:29;97789.50;;;6.42;68.42
47374;BME280;33123;50.118;10.272;2023-02-01T07:36:58;97786.59;;;6.50;68.93
47374;BME280;33123;50.118;10.272;2023-02-01T07:39:24;97781.59;;;6.67;67.94
47374;BME280;33123;50.118;10.272;2023-02-01T07:41:53;97780.22;;;6.83;68.51
47374;BME280;33123;50.118;10.272;2023-02-01T07:44:21;97763.94;;;6.93;67.18
47374;BME280;33123;50.118;10.272;2023-02-01T07:46:48;97761.19;;;6.87;67.34
47374;BME280;33123;50.118;10.272;2023-02-01T07:49:15;97752.00;;;6.97;67.22
47374;BME280;33123;50.118;10.272;2023-02-01T07:51:42;97756.56;;;7.20;67.03
47374;BME280;33123;50.118;10.272;2023-02-01T07:54:10;97763.88;;;7.29;66.07
47374;BME280;33123;50.118;10.272;2023-02-01T07:56:37;97766.59;;;7.23;65.90
47374;BME280;33123;50.118;10.272;2023-02-01T07:59:03;97769.56;;;7.26;65.82
47374;BME280;33123;50.118;10.272;2023-02-01T08:01:31;97767.66;;;7.33;65.98
47374;BME280;33123;50.118;10.272;2023-02-01T08:03:58;97777.41;;;7.45;65.61
47374;BME280;33123;50.118;10.272;2023-02-01T08:06:25;97786.00;;;7.75;64.36
47374;BME280;33123;50.118;10.272;2023-02-01T08:08:52;97787.09;;;8.21;64.27
47374;BME280;33123;50.118;10.272;2023-02-01T08:11:21;97788.34;;;8.65;62.39
47374;BME280;33123;50.118;10.272;2023-02-01T08:13:49;97791.94;;;8.88;60.27
47374;BME280;33123;50.118;10.272;2023-02-01T08:16:16;97796.41;;;8.87;58.60
47374;BME280;33123;50.118;10.272;2023-02-01T08:18:44;97791.88;;;9.23;58.97
47374;BME280;33123;50.118;10.272;2023-02-01T08:21:13;97805.84;;;9.40;58.60
47374;BME280;33123;50.118;10.272;2023-02-01T08:23:42;97802.47;;;9.57;57.87
47374;BME280;33123;50.118;10.272;2023-02-01T08:26:10;97807.69;;;9.85;57.92
47374;BME280;33123;50.118;10.272;2023-02-01T08:28:40;97810.97;;;9.92;55.74
47374;BME280;33123;50.118;10.272;2023-02-01T08:31:09;97813.44;;;10.16;55.04
47374;BME280;33123;50.118;10.272;2023-02-01T08:33:37;97811.66;;;10.21;54.41
47374;BME280;33123;50.118;10.272;2023-02-01T08:36:04;97813.84;;;9.91;53.76
47374;BME280;33123;50.118;10.272;2023-02-01T08:38:31;97802.16;;;9.70;54.13
47374;BME280;33123;50.118;10.272;2023-02-01T08:41:04;97806.41;;;9.42;54.52
47374;BME280;33123;50.118;10.272;2023-02-01T08:43:31;97796.63;;;8.97;55.05
47374;BME280;33123;50.118;10.272;2023-02-01T08:45:59;97799.22;;;8.45;56.84
47374;BME280;33123;50.118;10.272;2023-02-01T08:48:26;97810.66;;;8.39;57.45
47374;BME280;33123;50.118;10.272;2023-02-01T08:50:52;97832.41;;;8.16;58.93
47374;BME280;33123;50.118;10.272;2023-02-01T08:53:19;97837.44;;;8.18;58.97
47374;BME280;33123;50.118;10.272;2023-02-01T08:55:46;97806.22;;;7.86;59.38
47374;BME280;33123;50.118;10.272;2023-02-01T08:58:12;97832.16;;;8.06;59.77
47374;BME280;33123;50.118;10.272;2023-02-01T09:00:42;97845.28;;;7.94;60.07
47374;BME280;33123;50.118;10.272;2023-02-01T09:03:11;97842.97;;;7.98;60.51
47374;BME280;33123;50.118;10.272;2023-02-01T09:05:38;97848.47;;;7.97;60.46
47374;BME280;33123;50.118;10.272;2023-02-01T09:08:05;97857.38;;;7.96;60.57
47374;BME280;33123;50.118;10.272;2023-02-01T09:10:32;97858.38;;;7.83;60.88
47374;BME280;33123;50.118;10.272;2023-02-01T09:12:59;97863.25;;;7.79;60.53
47374;BME280;33123;50.118;10.272;2023-02-01T09:15:26;97857.50;;;7.71;61.23
47374;BME280;33123;50.118;10.272;2023-02-01T09:17:52;97839.25;;;7.64;62.23
47374;BME280;33123;50.118;10.272;2023-02-01T09:20:20;97856.06;;;7.75;61.46
47374;BME280;33123;50.118;10.272;2023-02-01T09:22:49;97845.72;;;7.50;61.34
47374;BME280;33123;50.118;10.272;2023-02-01T09:25:16;97853.91;;;7.53;61.82
47374;BME280;33123;50.118;10.272;2023-02-01T09:27:43;97865.19;;;7.54;61.82
47374;BME280;33123;50.118;10.272;2023-02-01T09:30:10;97862.72;;;7.59;61.53
47374;BME280;33123;50.118;10.272;2023-02-01T09:32:37;97869.34;;;7.61;61.83
47374;BME280;33123;50.118;10.272;2023-02-01T09:35:04;97868.47;;;7.49;61.48
47374;BME280;33123;50.118;10.272;2023-02-01T09:37:32;97874.56;;;7.50;60.96
47374;BME280;33123;50.118;10.272;2023-02-01T09:39:59;97859.72;;;7.25;61.83
47374;BME280;33123;50.118;10.272;2023-02-01T09:42:41;97871.19;;;7.43;61.88
47374;BME280;33123;50.118;10.272;2023-02-01T09:45:21;97887.44;;;7.51;62.30
47374;BME280;33123;50.118;10.272;2023-02-01T09:47:53;97876.34;;;7.49;61.16
47374;BME280;33123;50.118;10.272;2023-02-01T09:50:26;97891.97;;;7.44;61.18
47374;BME280;33123;50.118;10.272;2023-02-01T09:53:00;97882.72;;;7.41;61.30
47374;BME280;33123;50.118;10.272;2023-02-01T09:55:34;97889.56;;;7.43;61.25
47374;BME280;33123;50.118;10.272;2023-02-01T09:58:09;97895.13;;;7.34;62.14
47374;BME280;33123;50.118;10.272;2023-02-01T10:00:40;97883.03;;;7.33;61.55
47374;BME280;33123;50.118;10.272;2023-02-01T10:03:11;97894.78;;;7.43;61.50
47374;BME280;33123;50.118;10.272;2023-02-01T10:05:50;97891.59;;;7.40;62.15
47374;BME280;33123;50.118;10.272;2023-02-01T10:08:27;97889.06;;;7.34;61.43
47374;BME280;33123;50.118;10.272;2023-02-01T10:11:03;97897.97;;;7.33;61.38
47374;BME280;33123;50.118;10.272;2023-02-01T10:13:41;97896.56;;;7.30;61.22
47374;BME280;33123;50.118;10.272;2023-02-01T10:16:22;97900.50;;;7.39;61.41
47374;BME280;33123;50.118;10.272;2023-02-01T10:19:00;97903.41;;;7.13;61.89
47374;BME280;33123;50.118;10.272;2023-02-01T10:21:39;97893.72;;;7.32;61.42
47374;BME280;33123;50.118;10.272;2023-02-01T10:24:22;97869.91;;;7.15;61.28
47374;BME280;33123;50.118;10.272;2023-02-01T10:26:56;97893.66;;;7.20;61.87
47374;BME280;33123;50.118;10.272;2023-02-01T10:29:30;97891.03;;;7.20;62.10
47374;BME280;33123;50.118;10.272;2023-02-01T10:31:59;97880.91;;;7.24;61.91
47374;BME280;33123;50.118;10.272;2023-02-01T10:34:27;97879.81;;;7.31;62.50
47374;BME280;33123;50.118;10.272;2023-02-01T10:36:59;97876.00;;;7.27;62.12
47374;BME280;33123;50.118;10.272;2023-02-01T10:39:28;97884.03;;;7.32;61.77
47374;BME280;33123;50.118;10.272;2023-02-01T10:41:56;97878.44;;;7.29;62.00
47374;BME280;33123;50.118;10.272;2023-02-01T10:44:26;97867.06;;;7.35;61.98
47374;BME280;33123;50.118;10.272;2023-02-01T10:46:54;97853.47;;;7.08;62.13
47374;BME280;33123;50.118;10.272;2023-02-01T10:49:24;97867.06;;;7.35;61.77
47374;BME280;33123;50.118;10.272;2023-02-01T10:51:58;97864.13;;;7.43;62.58
47374;BME280;33123;50.118;10.272;2023-02-01T10:54:34;97860.28;;;7.46;61.83
47374;BME280;33123;50.118;10.272;2023-02-01T10:57:01;97854.81;;;7.47;61.57
47374;BME280;33123;50.118;10.272;2023-02-01T10:59:29;97846.84;;;7.54;61.55
47374;BME280;33123;50.118;10.272;2023-02-01T11:01:59;97833.59;;;7.49;62.10
47374;BME280;33123;50.118;10.272;2023-02-01T11:04:28;97835.00;;;7.51;62.51
47374;BME280;33123;50.118;10.272;2023-02-01T11:07:06;97839.81;;;7.66;62.65
47374;BME280;33123;50.118;10.272;2023-02-01T11:09:39;97827.78;;;7.47;62.24
47374;BME280;33123;50.118;10.272;2023-02-01T11:12:22;97833.69;;;7.72;62.04
47374;BME280;33123;50.118;10.272;2023-02-01T11:14:50;97832.41;;;7.63;62.02
47374;BME280;33123;50.118;10.272;2023-02-01T11:17:23;97832.88;;;7.72;61.83
47374;BME280;33123;50.118;10.272;2023-02-01T11:19:58;97825.09;;;7.65;61.92
47374;BME280;33123;50.118;10.272;2023-02-01T11:22:26;97831.41;;;7.76;62.12
47374;BME280;33123;50.118;10.272;2023-02-01T11:24:56;97833.38;;;7.80;61.86
47374;BME280;33123;50.118;10.272;2023-02-01T11:27:24;97835.56;;;7.83;62.29
47374;BME280;33123;50.118;10.272;2023-02-01T11:29:53;97835.44;;;7.78;61.78
47374;BME280;33123;50.118;10.272;2023-02-01T11:32:23;97842.53;;;7.89;61.22
47374;BME280;33123;50.118;10.272;2023-02-01T11:34:53;97853.03;;;7.89;61.33
47374;BME280;33123;50.118;10.272;2023-02-01T11:37:24;97845.78;;;7.73;60.91
47374;BME280;33123;50.118;10.272;2023-02-01T11:39:57;97839.91;;;7.59;61.36
47374;BME280;33123;50.118;10.272;2023-02-01T11:42:25;97847.47;;;7.37;61.12
47374;BME280;33123;50.118;10.272;2023-02-01T11:45:15;97846.72;;;7.49;61.52
47374;BME280;33123;50.118;10.272;2023-02-01T11:47:42;97840.94;;;7.58;61.74
47374;BME280;33123;50.118;10.272;2023-02-01T11:50:14;97833.47;;;7.74;61.16
47374;BME280;33123;50.118;10.272;2023-02-01T11:52:50;97827.41;;;7.73;60.70
47374;BME280;33123;50.118;10.272;2023-02-01T11:55:36;97830.38;;;7.77;60.59
47374;BME280;33123;50.118;10.272;2023-02-01T11:58:17;97821.00;;;7.69;61.00
47374;BME280;33123;50.118;10.272;2023-02-01T12:00:56;97818.88;;;7.78;60.88
47374;BME280;33123;50.118;10.272;2023-02-01T12:03:46;97817.13;;;7.72;60.71
47374;BME280;33123;50.118;10.272;2023-02-01T12:06:22;97818.94;;;7.59;60.24
47374;BME280;33123;50.118;10.272;2023-02-01T12:09:03;97818.41;;;7.81;60.11
47374;BME280;33123;50.118;10.272;2023-02-01T12:11:50;97821.56;;;7.71;60.08
47374;BME280;33123;50.118;10.272;2023-02-01T12:14:27;97808.41;;;7.48;59.74
47374;BME280;33123;50.118;10.272;2023-02-01T12:17:17;97819.84;;;7.65;59.68
47374;BME280;33123;50.118;10.272;2023-02-01T12:20:02;97808.22;;;7.61;59.68
47374;BME280;33123;50.118;10.272;2023-02-01T12:22:42;97814.94;;;7.57;59.65
47374;BME280;33123;50.118;10.272;2023-02-01T12:25:21;97819.75;;;7.72;59.42
47374;BME280;33123;50.118;10.272;2023-02-01T12:30:58;97811.41;;;7.63;59.12
47374;BME280;33123;50.118;10.272;2023-02-01T12:33:40;97801.69;;;7.52;59.61
47374;BME280;33123;50.118;10.272;2023-02-01T12:36:16;97797.41;;;7.69;58.42
47374;BME280;33123;50.118;10.272;2023-02-01T12:38:51;97782.78;;;7.50;59.34
47374;BME280;33123;50.118;10.272;2023-02-01T12:44:27;97784.81;;;7.59;59.17
47374;BME280;33123;50.118;10.272;2023-02-01T12:46:59;97802.78;;;7.74;58.77
47374;BME280;33123;50.118;10.272;2023-02-01T12:49:36;97808.03;;;7.74;59.09
47374;BME280;33123;50.118;10.272;2023-02-01T12:52:13;97802.41;;;7.71;58.99
47374;BME280;33123;50.118;10.272;2023-02-01T12:54:46;97801.66;;;7.40;58.79
47374;BME280;33123;50.118;10.272;2023-02-01T12:57:17;97798.53;;;7.61;59.17
47374;BME280;33123;50.118;10.272;2023-02-01T12:59:53;97793.53;;;7.72;58.98
47374;BME280;33123;50.118;10.272;2023-02-01T13:02:31;97787.47;;;7.71;58.90
47374;BME280;33123;50.118;10.272;2023-02-01T13:05:12;97785.63;;;7.60;58.56
47374;BME280;33123;50.118;10.272;2023-02-01T13:07:44;97787.34;;;7.66;58.87
47374;BME280;33123;50.118;10.272;2023-02-01T13:10:16;97790.34;;;7.70;58.73
47374;BME280;33123;50.118;10.272;2023-02-01T13:12:50;97774.22;;;7.66;58.56
47374;BME280;33123;50.118;10.272;2023-02-01T13:15:23;97789.09;;;7.72;58.64
47374;BME280;33123;50.118;10.272;2023-02-01T13:17:51;97780.97;;;7.62;59.41
47374;BME280;33123;50.118;10.272;2023-02-01T13:20:24;97777.16;;;7.46;58.46
47374;BME280;33123;50.118;10.272;2023-02-01T13:22:58;97774.00;;;7.56;58.59
47374;BME280;33123;50.118;10.272;2023-02-01T13:25:31;97769.72;;;7.73;58.83
47374;BME280;33123;50.118;10.272;2023-02-01T13:28:02;97758.06;;;7.69;59.14